Time;durP1;ratioP1;P1;durP2;ratioP2;P2;SDS_P1;SDS_P2;PMS_P1;PMS_P2;Temp;Humidity;BMP_temperature;BMP_pressure;BME280_temperature;BME280_humidity;BME280_pressure;Samples;Min_cycle;Max_cycle;Signal;HPM_P1;HPM_P2
2022/03/18 00:02:22;;;;;;;27.90;14.07;;;;;;;9.88;65.42;101669.03;4998840;28;20042;-82
2022/03/18 00:04:52;;;;;;;27.33;11.75;;;;;;;9.95;64.98;101673.06;4998606;28;20065;-83
2022/03/18 00:07:22;;;;;;;23.75;12.73;;;;;;;9.87;65.62;101664.66;4987689;28;20445;-83
2022/03/18 00:09:49;;;;;;;26.25;13.15;;;;;;;9.73;65.59;101676.03;4993929;28;20042;-82
2022/03/18 00:12:16;;;;;;;27.50;12.00;;;;;;;9.85;65.44;101674.50;4958586;28;20160;-82
2022/03/18 00:14:44;;;;;;;24.08;12.65;;;;;;;9.87;65.26;101681.44;4965503;28;20162;-82
2022/03/18 00:17:12;;;;;;;24.02;12.27;;;;;;;9.90;65.13;101675.97;4960501;28;20054;-82
2022/03/18 00:19:39;;;;;;;22.90;12.85;;;;;;;9.81;65.69;101675.63;4979644;28;20053;-82
2022/03/18 00:22:06;;;;;;;27.65;12.55;;;;;;;9.82;65.77;101677.31;4964132;28;20053;-82
2022/03/18 00:24:35;;;;;;;27.02;13.77;;;;;;;9.89;65.31;101673.38;4955851;28;20042;-83
2022/03/18 00:27:06;;;;;;;27.75;12.05;;;;;;;9.96;65.00;101672.09;4952875;28;20129;-83
2022/03/18 00:29:33;;;;;;;29.48;13.15;;;;;;;9.98;64.92;101678.19;4976843;28;20553;-83
2022/03/18 00:32:01;;;;;;;27.50;13.65;;;;;;;9.93;64.82;101686.41;4989892;28;20463;-83
2022/03/18 00:34:33;;;;;;;28.23;13.50;;;;;;;9.96;64.83;101690.69;4953646;28;20048;-83
2022/03/18 00:37:00;;;;;;;28.95;12.63;;;;;;;10.03;64.52;101688.53;4950809;28;20042;-82
2022/03/18 00:39:26;;;;;;;22.80;12.35;;;;;;;9.98;64.54;101678.19;4998031;28;20056;-83
2022/03/18 00:41:53;;;;;;;29.10;12.82;;;;;;;9.91;64.75;101682.13;4970385;28;20463;-83
2022/03/18 00:44:20;;;;;;;27.00;12.32;;;;;;;9.91;64.61;101685.63;4984804;28;20049;-82
2022/03/18 00:46:47;;;;;;;25.98;12.40;;;;;;;9.92;64.85;101691.78;5004440;28;20049;-83
2022/03/18 00:52:06;;;;;;;29.90;13.50;;;;;;;9.87;65.04;101688.53;4981838;28;20050;-82
2022/03/18 00:54:33;;;;;;;29.77;12.23;;;;;;;9.91;64.51;101684.78;5006317;28;20402;-82
2022/03/18 00:57:00;;;;;;;20.67;12.52;;;;;;;9.89;64.80;101691.94;4971181;28;20092;-82
2022/03/18 00:59:28;;;;;;;24.48;12.48;;;;;;;9.93;64.27;101685.53;4978170;28;20096;-82
2022/03/18 01:01:57;;;;;;;30.83;12.85;;;;;;;9.94;64.47;101685.44;4980073;28;20057;-83
2022/03/18 01:04:25;;;;;;;26.52;12.25;;;;;;;9.95;64.11;101686.31;4967748;28;20042;-82
2022/03/18 01:06:55;;;;;;;25.27;13.10;;;;;;;9.87;64.48;101681.44;4991686;28;20149;-82
2022/03/18 01:09:22;;;;;;;25.30;12.13;;;;;;;9.93;64.17;101690.84;4964483;28;20104;-82
2022/03/18 01:11:50;;;;;;;30.55;13.02;;;;;;;9.93;64.32;101691.69;4976943;28;20050;-83
2022/03/18 01:14:18;;;;;;;26.33;11.85;;;;;;;9.83;64.50;101701.13;4964727;28;20053;-83
2022/03/18 01:16:45;;;;;;;25.50;11.65;;;;;;;9.74;65.04;101701.63;4986992;28;20050;-83
2022/03/18 01:19:12;;;;;;;32.78;11.32;;;;;;;9.85;64.76;101695.75;4958046;28;20133;-83
2022/03/18 01:21:39;;;;;;;24.73;12.02;;;;;;;9.92;64.49;101705.94;4997697;28;20086;-83
2022/03/18 01:24:06;;;;;;;20.88;12.05;;;;;;;9.90;64.27;101699.84;4987118;28;20053;-83
2022/03/18 01:26:33;;;;;;;23.63;12.02;;;;;;;9.73;64.63;101707.88;4982662;28;20046;-83
2022/03/18 01:29:00;;;;;;;24.92;11.00;;;;;;;9.78;64.84;101693.41;4967792;28;20050;-83
2022/03/18 01:31:27;;;;;;;29.67;11.50;;;;;;;9.86;64.73;101706.25;4980659;28;20046;-82
2022/03/18 01:33:54;;;;;;;21.52;11.00;;;;;;;9.82;64.54;101698.53;5000409;28;20383;-82
2022/03/18 01:36:20;;;;;;;23.25;11.60;;;;;;;9.84;64.59;101702.81;4988923;28;20092;-83
2022/03/18 01:38:47;;;;;;;23.27;12.40;;;;;;;9.90;64.41;101694.53;4976064;28;20049;-82
2022/03/18 01:41:14;;;;;;;22.88;11.88;;;;;;;9.96;64.26;101706.59;4979413;28;20097;-82
2022/03/18 01:43:44;;;;;;;23.77;10.77;;;;;;;9.86;64.27;101708.91;4975352;28;20061;-83
2022/03/18 01:46:16;;;;;;;22.15;10.68;;;;;;;9.75;64.16;101698.88;4986405;28;20049;-83
2022/03/18 01:48:43;;;;;;;17.58;9.77;;;;;;;9.78;64.24;101704.03;4975732;28;20042;-83
2022/03/18 01:51:10;;;;;;;27.63;12.48;;;;;;;10.01;63.34;101715.16;4952399;28;20129;-83
2022/03/18 01:53:38;;;;;;;22.65;10.93;;;;;;;9.79;64.03;101707.53;4961086;28;20535;-83
2022/03/18 01:56:06;;;;;;;23.50;10.38;;;;;;;9.81;63.49;101696.84;4966674;28;20130;-82
2022/03/18 01:58:33;;;;;;;23.60;11.52;;;;;;;9.70;64.29;101706.25;4975154;28;22201;-83
2022/03/18 02:01:00;;;;;;;26.08;10.88;;;;;;;9.73;64.20;101705.22;4963829;28;20121;-82
2022/03/18 02:03:29;;;;;;;21.42;10.80;;;;;;;9.71;63.85;101707.94;4978362;28;20470;-82
2022/03/18 02:05:57;;;;;;;24.80;10.85;;;;;;;9.66;64.15;101712.66;4954128;28;20053;-83
2022/03/18 02:08:24;;;;;;;24.00;11.02;;;;;;;9.73;63.93;101714.03;4987443;28;20160;-82
2022/03/18 02:10:50;;;;;;;24.33;11.88;;;;;;;9.64;64.47;101725.16;4977026;28;20042;-82
2022/03/18 02:13:18;;;;;;;23.92;11.88;;;;;;;9.75;63.96;101714.81;4985668;28;20099;-82
2022/03/18 02:15:45;;;;;;;19.98;10.85;;;;;;;9.68;63.91;101712.56;4996848;28;20048;-82
2022/03/18 02:18:12;;;;;;;23.83;10.55;;;;;;;9.75;63.71;101716.63;4959798;28;20038;-82
2022/03/18 02:20:38;;;;;;;23.80;10.85;;;;;;;9.64;64.21;101711.91;4977490;28;20047;-83
2022/03/18 02:23:05;;;;;;;22.05;10.52;;;;;;;9.61;64.13;101709.38;4978172;28;20049;-82
2022/03/18 02:25:32;;;;;;;27.60;10.82;;;;;;;9.60;64.54;101725.41;4981506;28;20045;-82
2022/03/18 02:28:02;;;;;;;20.33;10.43;;;;;;;9.46;64.57;101721.69;4968366;28;20456;-83
2022/03/18 02:30:33;;;;;;;21.75;10.02;;;;;;;9.53;64.56;101730.16;4995980;28;20126;-82
2022/03/18 02:33:00;;;;;;;24.08;10.73;;;;;;;9.21;65.28;101732.75;4990959;28;20115;-82
2022/03/18 02:35:28;;;;;;;29.30;10.35;;;;;;;9.39;65.09;101730.94;4984656;28;20517;-82
2022/03/18 02:38:01;;;;;;;23.65;11.05;;;;;;;9.42;64.43;101736.06;4981760;28;20410;-82
2022/03/18 02:40:28;;;;;;;19.58;9.57;;;;;;;9.55;64.04;101734.44;4952421;28;20050;-82
2022/03/18 02:42:55;;;;;;;21.40;10.43;;;;;;;9.60;63.93;101733.38;4982443;28;20053;-83
2022/03/18 02:45:22;;;;;;;21.92;10.38;;;;;;;9.40;64.15;101732.63;4983403;28;20057;-83
2022/03/18 02:47:49;;;;;;;18.98;9.55;;;;;;;9.42;64.33;101733.41;4961722;28;20124;-82
2022/03/18 02:50:16;;;;;;;21.15;9.90;;;;;;;9.43;64.47;101736.91;5010715;28;20046;-82
2022/03/18 02:52:44;;;;;;;23.38;10.27;;;;;;;9.44;64.36;101734.19;4997032;28;20046;-83
2022/03/18 02:55:11;;;;;;;23.35;10.55;;;;;;;9.46;64.55;101745.53;4965574;28;20049;-83
2022/03/18 02:57:38;;;;;;;27.02;11.15;;;;;;;9.40;64.70;101731.78;4965206;28;20057;-83
2022/03/18 03:00:06;;;;;;;24.98;10.48;;;;;;;9.32;64.73;101742.78;4982797;28;20444;-83
2022/03/18 03:02:33;;;;;;;24.08;10.65;;;;;;;9.37;64.26;101743.41;4964210;28;20117;-83
2022/03/18 03:08:00;;;;;;;23.08;10.27;;;;;;;9.29;64.32;101749.09;4940899;28;20049;-82
2022/03/18 03:10:31;;;;;;;23.73;10.50;;;;;;;9.45;64.01;101743.84;4955706;28;20042;-82
2022/03/18 03:13:05;;;;;;;22.77;10.75;;;;;;;9.37;64.15;101751.34;4988808;28;20050;-82
2022/03/18 03:15:33;;;;;;;24.85;10.82;;;;;;;9.31;64.54;101749.00;4991401;28;20056;-82
2022/03/18 03:18:00;;;;;;;26.17;11.68;;;;;;;9.30;64.64;101750.81;5018249;28;20045;-82
2022/03/18 03:20:27;;;;;;;26.48;11.50;;;;;;;9.24;64.83;101756.44;4974048;28;20184;-82
2022/03/18 03:22:53;;;;;;;23.92;11.40;;;;;;;9.28;64.41;101755.31;4964680;28;20057;-82
2022/03/18 03:25:20;;;;;;;23.52;11.13;;;;;;;9.19;64.86;101752.31;5000438;28;20048;-82
2022/03/18 03:27:51;;;;;;;27.13;10.85;;;;;;;9.17;64.71;101762.16;4981703;28;20469;-83
2022/03/18 03:30:17;;;;;;;29.65;12.23;;;;;;;9.33;64.27;101763.03;5012835;28;20060;-83
2022/03/18 03:32:45;;;;;;;25.63;12.00;;;;;;;9.32;64.36;101759.53;4965236;28;20120;-82
2022/03/18 03:35:12;;;;;;;27.48;12.05;;;;;;;9.34;64.15;101764.78;4979646;28;20116;-82
2022/03/18 03:37:39;;;;;;;31.10;12.73;;;;;;;9.21;64.60;101774.28;4973483;28;20486;-83
2022/03/18 03:40:06;;;;;;;24.60;11.32;;;;;;;9.30;64.16;101771.16;4999569;28;20046;-82
2022/03/18 03:42:33;;;;;;;28.55;11.82;;;;;;;9.11;64.64;101772.13;4973463;28;20721;-82
2022/03/18 03:45:00;;;;;;;29.85;12.23;;;;;;;9.06;64.69;101792.72;4981961;28;20120;-83
2022/03/18 03:47:26;;;;;;;30.95;12.90;;;;;;;9.08;64.91;101782.00;4975303;28;20050;-82
2022/03/18 03:49:53;;;;;;;28.67;12.85;;;;;;;9.21;64.33;101779.59;4982202;28;20057;-82
2022/03/18 03:52:20;;;;;;;30.98;13.10;;;;;;;9.12;64.65;101786.22;4981073;28;20049;-82
2022/03/18 03:54:47;;;;;;;32.13;12.73;;;;;;;9.15;64.67;101791.38;4974202;28;20046;-82
2022/03/18 03:57:13;;;;;;;30.38;12.77;;;;;;;9.27;64.43;101800.50;4979557;28;20154;-82
2022/03/18 03:59:41;;;;;;;27.95;12.85;;;;;;;9.11;64.91;101800.44;4994717;28;20080;-83
2022/03/18 04:02:08;;;;;;;27.85;13.00;;;;;;;9.11;64.53;101801.28;4987890;28;20041;-82
2022/03/18 04:04:35;;;;;;;31.38;12.07;;;;;;;9.16;64.42;101800.16;4953026;28;20050;-82
2022/03/18 04:07:02;;;;;;;36.65;12.68;;;;;;;9.12;64.81;101804.78;4992907;28;20038;-82
2022/03/18 04:09:29;;;;;;;33.75;12.48;;;;;;;8.98;64.93;101816.09;4966402;28;20418;-82
2022/03/18 04:12:00;;;;;;;28.85;12.93;;;;;;;9.04;64.78;101804.31;4957280;28;20501;-82
2022/03/18 04:14:27;;;;;;;30.25;11.98;;;;;;;9.06;65.13;101823.66;4963074;28;20049;-82
2022/03/18 04:16:54;;;;;;;27.20;12.30;;;;;;;9.06;64.96;101818.34;4967662;28;20069;-82
2022/03/18 04:19:21;;;;;;;32.72;13.48;;;;;;;9.09;64.57;101827.00;4963318;28;20054;-82
2022/03/18 04:21:48;;;;;;;38.80;13.75;;;;;;;8.94;65.59;101824.25;4987463;28;20046;-82
2022/03/18 04:24:14;;;;;;;42.88;14.15;;;;;;;8.97;65.06;101830.25;4966444;28;20861;-82
2022/03/18 04:26:41;;;;;;;29.75;12.43;;;;;;;8.97;65.01;101835.56;4988498;28;20114;-82
2022/03/18 04:29:08;;;;;;;34.35;13.75;;;;;;;8.82;65.70;101837.16;4980087;28;21282;-82
2022/03/18 04:31:35;;;;;;;34.35;12.85;;;;;;;9.03;65.03;101839.69;4980012;28;20493;-82
2022/03/18 04:34:05;;;;;;;28.38;13.25;;;;;;;8.99;64.78;101840.78;4953388;28;20676;-81
2022/03/18 04:36:32;;;;;;;35.67;14.20;;;;;;;8.87;65.30;101837.78;4982682;28;20069;-82
2022/03/18 04:38:59;;;;;;;30.17;12.02;;;;;;;8.86;65.45;101841.38;4978702;28;20130;-82
2022/03/18 04:41:26;;;;;;;32.25;13.88;;;;;;;8.93;65.16;101849.03;4979510;28;20037;-83
2022/03/18 04:43:53;;;;;;;32.45;12.25;;;;;;;8.88;65.51;101849.28;4958583;28;20038;-82
2022/03/18 04:46:19;;;;;;;29.38;12.48;;;;;;;9.07;64.85;101839.47;4977520;28;20158;-82
2022/03/18 04:48:46;;;;;;;31.50;12.45;;;;;;;8.86;65.36;101859.09;4966650;28;20501;-83
2022/03/18 04:51:13;;;;;;;30.15;12.07;;;;;;;8.97;64.97;101854.09;4954716;28;20125;-82
2022/03/18 04:53:41;;;;;;;29.15;12.32;;;;;;;9.01;64.73;101854.81;4953864;28;20690;-82
2022/03/18 04:57:15;;;;;;;28.95;12.05;;;;;;;8.88;65.31;101855.44;4976403;28;20050;-83
2022/03/18 04:58:56;;;;;;;32.17;12.02;;;;;;;8.83;65.55;101859.25;4992738;28;20042;-82
2022/03/18 05:01:22;;;;;;;30.52;12.43;;;;;;;8.95;65.18;101863.06;4963926;28;20493;-82
2022/03/18 05:03:49;;;;;;;31.42;13.13;;;;;;;8.98;65.03;101868.19;4970412;28;20053;-79
2022/03/18 05:06:17;;;;;;;28.80;13.30;;;;;;;8.92;65.43;101864.06;4981150;28;20038;-79
2022/03/18 05:08:44;;;;;;;29.60;12.50;;;;;;;9.04;64.73;101867.91;4976217;28;20529;-79
2022/03/18 05:11:12;;;;;;;27.63;11.95;;;;;;;8.82;65.48;101873.41;4975590;28;20096;-80
2022/03/18 05:13:39;;;;;;;25.67;10.45;;;;;;;8.83;65.67;101877.78;4988946;28;20152;-79
2022/03/18 05:16:06;;;;;;;26.63;11.77;;;;;;;8.89;65.46;101874.81;4985576;28;20056;-79
2022/03/18 05:18:34;;;;;;;29.38;13.15;;;;;;;8.88;65.33;101884.56;5009384;28;20091;-79
2022/03/18 05:21:01;;;;;;;34.65;12.75;;;;;;;8.85;65.12;101897.09;4981298;28;20190;-79
2022/03/18 05:23:29;;;;;;;34.60;13.35;;;;;;;8.80;65.56;101899.97;4964676;28;20050;-79
2022/03/18 05:25:56;;;;;;;30.77;12.52;;;;;;;8.87;65.09;101897.88;4981019;28;20457;-79
2022/03/18 05:28:22;;;;;;;26.02;12.45;;;;;;;8.88;64.92;101902.25;4980691;28;20050;-79
2022/03/18 05:30:50;;;;;;;30.92;12.43;;;;;;;8.77;65.43;101905.41;4992482;28;20057;-79
2022/03/18 05:33:19;;;;;;;33.03;12.13;;;;;;;8.85;65.34;101915.63;4977666;28;20045;-79
2022/03/18 05:35:46;;;;;;;30.15;11.38;;;;;;;8.64;65.71;101920.16;4989417;28;20046;-79
2022/03/18 05:38:12;;;;;;;31.48;12.23;;;;;;;8.88;65.03;101915.50;5020324;28;20053;-80
2022/03/18 05:40:39;;;;;;;35.53;11.98;;;;;;;8.67;65.76;101931.47;4991083;28;20053;-79
2022/03/18 05:43:06;;;;;;;30.55;11.43;;;;;;;8.81;65.04;101924.69;4980934;28;20117;-78
2022/03/18 05:45:33;;;;;;;28.35;12.25;;;;;;;8.68;65.53;101921.75;4983579;28;20061;-79
2022/03/18 05:48:00;;;;;;;31.17;12.02;;;;;;;8.96;64.91;101937.19;4986646;28;20980;-80
2022/03/18 05:50:27;;;;;;;30.70;11.45;;;;;;;8.72;65.08;101928.59;4961297;28;20145;-79
2022/03/18 05:52:54;;;;;;;25.02;10.90;;;;;;;8.59;65.49;101938.06;4962586;28;20070;-79
2022/03/18 05:55:21;;;;;;;29.70;11.73;;;;;;;8.67;65.35;101934.09;4984639;28;20070;-79
2022/03/18 05:57:51;;;;;;;30.55;11.15;;;;;;;8.57;65.42;101938.13;4980203;28;20042;-80
2022/03/18 06:00:20;;;;;;;28.27;10.40;;;;;;;8.54;65.71;101945.34;4984022;28;20046;-80
2022/03/18 06:02:46;;;;;;;29.83;10.48;;;;;;;8.79;64.88;101945.94;4999186;28;20050;-80
2022/03/18 06:05:16;;;;;;;25.30;9.63;;;;;;;8.60;64.96;101947.72;5013054;28;20092;-80
2022/03/18 06:07:43;;;;;;;25.13;10.15;;;;;;;8.65;65.26;101937.75;4984675;28;20140;-80
2022/03/18 06:12:55;;;;;;;32.22;11.18;;;;;;;8.74;65.57;101950.59;4964671;28;20053;-80
2022/03/18 06:15:21;;;;;;;22.77;9.80;;;;;;;8.42;65.94;101952.06;4991324;28;20048;-80
2022/03/18 06:17:48;;;;;;;36.97;10.88;;;;;;;8.51;65.61;101945.50;4995821;28;20073;-79
2022/03/18 06:20:15;;;;;;;25.10;10.27;;;;;;;8.52;65.74;101941.91;4994924;28;20034;-80
2022/03/18 06:22:42;;;;;;;28.70;10.20;;;;;;;8.66;65.19;101948.28;4982965;28;20050;-79
2022/03/18 06:25:09;;;;;;;25.92;11.05;;;;;;;8.59;65.22;101943.34;4980046;28;20468;-79
2022/03/18 06:27:36;;;;;;;28.75;11.30;;;;;;;8.78;64.28;101944.22;4983850;28;20050;-79
2022/03/18 06:30:04;;;;;;;27.40;10.07;;;;;;;8.65;64.67;101949.25;4983781;28;20136;-80
2022/03/18 06:32:31;;;;;;;31.80;12.10;;;;;;;8.61;64.83;101962.69;4989346;28;20065;-81
2022/03/18 06:34:58;;;;;;;27.33;10.02;;;;;;;8.74;64.51;101952.38;5016018;28;20033;-80
2022/03/18 06:37:26;;;;;;;32.60;11.80;;;;;;;8.55;64.52;101960.31;4988105;28;20053;-80
2022/03/18 06:39:52;;;;;;;32.05;10.93;;;;;;;8.62;64.93;101969.69;4962081;28;20046;-80
2022/03/18 06:42:20;;;;;;;36.03;10.55;;;;;;;8.62;64.66;101967.03;4977452;28;20540;-79
2022/03/18 06:44:50;;;;;;;27.05;11.25;;;;;;;8.82;64.15;101966.13;4972128;28;20049;-79
2022/03/18 06:47:16;;;;;;;36.13;11.50;;;;;;;8.56;64.76;101983.22;4970743;28;20057;-80
2022/03/18 06:49:46;;;;;;;30.65;10.32;;;;;;;8.55;65.25;101981.50;4977074;28;20053;-80
2022/03/18 06:52:13;;;;;;;28.77;9.70;;;;;;;8.67;64.49;101992.38;4965900;28;20186;-81
2022/03/18 06:54:41;;;;;;;31.40;10.00;;;;;;;8.59;64.95;101993.66;4979153;28;20520;-80
2022/03/18 06:57:08;;;;;;;34.35;10.05;;;;;;;8.48;65.25;101987.06;5001944;28;20038;-80
2022/03/18 06:59:39;;;;;;;28.13;10.57;;;;;;;8.43;65.05;102004.09;4984521;28;20076;-81
2022/03/18 07:02:06;;;;;;;31.73;10.43;;;;;;;8.61;64.81;101983.88;5014159;28;20046;-80
2022/03/18 07:04:33;;;;;;;31.65;10.35;;;;;;;8.60;64.30;101983.03;4981969;28;20103;-80
2022/03/18 07:07:01;;;;;;;29.13;10.10;;;;;;;8.63;64.85;101992.63;5013636;28;20060;-80
2022/03/18 07:09:31;;;;;;;29.13;9.13;;;;;;;8.52;65.42;101992.22;4995945;28;20046;-80
2022/03/18 07:11:57;;;;;;;24.83;9.85;;;;;;;8.55;65.05;101994.72;4990402;28;20053;-80
2022/03/18 07:14:24;;;;;;;26.52;10.98;;;;;;;8.57;64.78;101998.16;4995156;28;20108;-80
2022/03/18 07:19:38;;;;;;;33.08;10.32;;;;;;;8.60;64.75;101998.91;4982560;28;20383;-79
2022/03/18 07:22:05;;;;;;;28.42;11.00;;;;;;;8.55;65.02;102030.03;5008012;28;20054;-79
2022/03/18 07:24:34;;;;;;;33.15;10.57;;;;;;;8.62;64.29;102023.50;4947956;28;20042;-79
2022/03/18 07:27:01;;;;;;;31.85;11.35;;;;;;;8.64;64.04;102016.34;4993193;28;20145;-79
2022/03/18 07:29:28;;;;;;;28.67;9.98;;;;;;;8.74;64.34;102015.94;4981694;28;20046;-81
2022/03/18 07:31:55;;;;;;;35.90;10.05;;;;;;;8.71;64.31;102022.25;4966262;28;20093;-80
2022/03/18 07:34:23;;;;;;;30.17;10.40;;;;;;;8.64;64.40;102049.94;5016220;28;20064;-80
2022/03/18 07:36:50;;;;;;;32.28;10.95;;;;;;;8.70;64.29;102036.41;4959292;28;20050;-80
2022/03/18 07:39:17;;;;;;;34.42;10.68;;;;;;;8.60;64.52;102024.50;5006343;28;20041;-80
2022/03/18 07:41:44;;;;;;;27.25;9.27;;;;;;;8.73;64.35;102038.06;4981364;28;20069;-80
2022/03/18 07:44:11;;;;;;;42.95;12.02;;;;;;;9.04;63.24;102026.91;4982813;28;20057;-80
2022/03/18 07:46:38;;;;;;;30.02;10.00;;;;;;;8.72;64.22;102039.84;4949388;28;20069;-80
2022/03/18 07:49:05;;;;;;;34.20;10.77;;;;;;;8.73;64.56;102060.13;4988230;28;20042;-80
2022/03/18 07:51:32;;;;;;;31.48;9.75;;;;;;;8.78;64.49;102052.84;4979101;28;20046;-80
2022/03/18 07:53:59;;;;;;;35.78;11.85;;;;;;;8.85;63.86;102054.28;4971182;28;20046;-80
2022/03/18 07:56:25;;;;;;;35.70;10.15;;;;;;;8.68;64.44;102060.34;4975509;28;20085;-80
2022/03/18 07:58:54;;;;;;;30.63;10.20;;;;;;;8.62;64.12;102094.16;5013550;28;20134;-84
2022/03/18 08:01:20;;;;;;;30.83;10.48;;;;;;;8.80;63.88;102072.19;4995759;28;20052;-80
2022/03/18 08:03:47;;;;;;;39.50;12.82;;;;;;;8.71;64.22;102074.38;4996934;28;20069;-80
2022/03/18 08:06:14;;;;;;;35.83;12.48;;;;;;;8.86;63.66;102077.19;4966144;28;20050;-81
2022/03/18 08:08:41;;;;;;;37.45;11.32;;;;;;;8.73;64.48;102053.94;4965771;28;20050;-80
2022/03/18 08:11:08;;;;;;;42.15;11.85;;;;;;;8.64;64.38;102055.22;4983998;28;20140;-80
2022/03/18 08:13:34;;;;;;;34.65;11.43;;;;;;;8.76;64.00;102048.53;4983485;28;20050;-84
2022/03/18 08:16:02;;;;;;;34.10;11.98;;;;;;;8.65;64.60;102052.53;4982289;28;20041;-80
2022/03/18 08:18:29;;;;;;;32.85;10.85;;;;;;;8.63;65.04;102062.31;5027826;28;20732;-80
2022/03/18 08:20:56;;;;;;;34.30;12.63;;;;;;;8.57;64.84;102089.06;4967047;28;20056;-81
2022/03/18 08:23:23;;;;;;;39.90;12.52;;;;;;;8.63;64.11;102057.03;4974314;28;20474;-80
2022/03/18 08:25:50;;;;;;;42.15;13.15;;;;;;;8.91;63.91;102071.69;4971673;28;20034;-80
2022/03/18 08:28:16;;;;;;;42.53;12.43;;;;;;;8.61;64.61;102072.13;5011256;28;20057;-83
2022/03/18 08:30:44;;;;;;;38.50;11.73;;;;;;;8.72;64.20;102082.22;4960611;28;20049;-80
2022/03/18 08:33:11;;;;;;;42.80;12.55;;;;;;;8.66;64.20;102078.06;5000457;28;20482;-80
2022/03/18 08:35:38;;;;;;;33.83;11.63;;;;;;;8.87;64.35;102086.84;4975655;28;20054;-80
2022/03/18 08:38:07;;;;;;;36.25;12.55;;;;;;;8.98;63.79;102078.44;4989545;28;20048;-80
2022/03/18 08:40:36;;;;;;;42.20;12.98;;;;;;;8.64;63.86;102087.00;4957786;28;20110;-80
2022/03/18 08:43:09;;;;;;;34.08;11.95;;;;;;;8.88;63.24;102088.56;4980159;28;20517;-80
2022/03/18 08:45:36;;;;;;;32.65;11.43;;;;;;;8.85;63.60;102099.31;4981002;28;20743;-80
2022/03/18 08:48:03;;;;;;;35.58;12.25;;;;;;;8.86;63.73;102097.53;5016811;28;20042;-80
2022/03/18 08:50:30;;;;;;;38.33;12.43;;;;;;;8.92;63.89;102091.94;4991202;28;20505;-81
2022/03/18 08:52:57;;;;;;;33.85;11.07;;;;;;;8.80;64.20;102114.56;5004606;28;20099;-80
2022/03/18 08:55:25;;;;;;;39.88;13.00;;;;;;;8.95;63.17;102102.38;5014616;28;20050;-80
2022/03/18 08:57:51;;;;;;;47.70;13.75;;;;;;;8.65;63.44;102110.78;4999802;28;20053;-80
2022/03/18 09:00:18;;;;;;;41.45;13.65;;;;;;;9.09;62.93;102099.97;4975026;28;20046;-80
2022/03/18 09:02:47;;;;;;;42.45;12.00;;;;;;;9.02;63.12;102097.69;4993173;28;20137;-80
2022/03/18 09:05:15;;;;;;;39.30;12.77;;;;;;;8.97;63.00;102087.28;5000164;28;20463;-80
2022/03/18 09:07:42;;;;;;;50.85;13.23;;;;;;;9.18;63.24;102122.53;4982527;28;20050;-82
2022/03/18 09:10:12;;;;;;;41.67;14.10;;;;;;;9.28;62.31;102118.53;4977926;28;20045;-80
2022/03/18 09:12:46;;;;;;;49.10;13.73;;;;;;;9.13;62.34;102093.63;4995582;28;20521;-80
2022/03/18 09:15:16;;;;;;;48.63;13.45;;;;;;;9.09;62.57;102104.44;4978179;28;20054;-80
2022/03/18 09:17:43;;;;;;;41.15;14.75;;;;;;;9.18;61.52;102101.34;4997616;28;20054;-82
2022/03/18 09:20:10;;;;;;;41.55;12.90;;;;;;;9.28;61.78;102115.88;4986404;28;20053;-80
2022/03/18 09:22:37;;;;;;;38.08;12.98;;;;;;;9.24;61.90;102106.38;4965437;28;20120;-80
2022/03/18 09:25:04;;;;;;;46.47;15.45;;;;;;;9.22;62.48;102112.66;4977522;28;20041;-80
2022/03/18 09:27:32;;;;;;;42.72;13.48;;;;;;;9.13;62.46;102109.53;4983168;28;20117;-79
2022/03/18 09:30:00;;;;;;;47.67;16.27;;;;;;;9.31;62.03;102107.81;4986614;28;20049;-80
2022/03/18 09:32:31;;;;;;;46.63;14.75;;;;;;;9.29;61.92;102128.22;4979306;28;20088;-80
2022/03/18 09:34:59;;;;;;;53.45;14.75;;;;;;;9.40;61.77;102116.25;4981794;28;21733;-80
2022/03/18 09:37:29;;;;;;;40.90;13.88;;;;;;;9.31;61.75;102110.47;5000518;28;20045;-80
2022/03/18 09:39:56;;;;;;;46.25;15.35;;;;;;;9.54;61.92;102113.78;4993152;28;20054;-80
2022/03/18 09:42:54;;;;;;;46.58;14.90;;;;;;;9.38;61.36;102123.41;4997262;28;20410;-80
2022/03/18 09:45:21;;;;;;;46.17;14.82;;;;;;;9.39;62.86;102120.69;4994111;28;20377;-79
2022/03/18 09:47:49;;;;;;;52.05;16.27;;;;;;;9.48;61.67;102140.63;4981156;28;20041;-80
2022/03/18 09:50:16;;;;;;;41.50;14.77;;;;;;;9.41;61.94;102125.91;4984233;28;20058;-80
2022/03/18 09:52:44;;;;;;;44.67;15.40;;;;;;;9.56;61.88;102133.16;4967743;28;20045;-80
2022/03/18 09:55:10;;;;;;;54.70;16.27;;;;;;;9.64;61.60;102130.13;4987506;28;20042;-80
2022/03/18 09:57:37;;;;;;;45.42;15.07;;;;;;;9.43;61.96;102134.66;4989513;28;20527;-80
2022/03/18 10:00:04;;;;;;;45.65;14.63;;;;;;;9.57;61.79;102132.22;5000872;28;20053;-80
2022/03/18 10:02:38;;;;;;;51.78;15.48;;;;;;;9.45;62.73;102136.31;5005510;28;20120;-80
2022/03/18 10:05:14;;;;;;;51.90;15.35;;;;;;;9.53;62.45;102134.16;5017175;28;20405;-80
2022/03/18 10:07:52;;;;;;;51.40;16.70;;;;;;;9.46;61.62;102138.03;4981258;28;20136;-80
2022/03/18 10:10:23;;;;;;;48.15;14.77;;;;;;;9.56;61.79;102146.41;5005660;28;20130;-79
2022/03/18 10:12:50;;;;;;;48.10;15.75;;;;;;;9.73;60.97;102149.13;5011158;28;20042;-80
2022/03/18 10:15:28;;;;;;;50.10;15.15;;;;;;;9.71;60.39;102150.13;4982991;28;20459;-80
2022/03/18 10:17:58;;;;;;;43.20;14.25;;;;;;;9.72;61.07;102142.13;4985388;28;20043;-80
2022/03/18 10:20:29;;;;;;;49.60;15.52;;;;;;;9.62;60.98;102145.28;4984507;28;20053;-80
2022/03/18 10:23:22;;;;;;;41.47;15.95;;;;;;;9.51;61.30;102148.41;4992063;28;20042;-80
2022/03/18 10:25:57;;;;;;;49.00;14.75;;;;;;;9.51;61.62;102151.06;4966479;28;20034;-80
2022/03/18 10:28:36;;;;;;;43.58;15.05;;;;;;;9.49;61.28;102140.56;5000936;28;20050;-80
2022/03/18 10:31:21;;;;;;;50.63;16.00;;;;;;;9.67;61.27;102135.31;4983474;28;20053;-84
2022/03/18 10:37:06;;;;;;;54.30;15.10;;;;;;;9.74;61.20;102147.31;4977051;28;20434;-80
2022/03/18 10:39:41;;;;;;;46.58;14.88;;;;;;;9.73;61.10;102130.56;4989183;28;20565;-80
2022/03/18 10:42:17;;;;;;;57.00;16.50;;;;;;;9.61;61.25;102136.44;4937907;28;20042;-79
2022/03/18 10:44:55;;;;;;;53.58;16.17;;;;;;;9.61;61.86;102132.94;4944068;28;20070;-79
2022/03/18 10:47:28;;;;;;;49.35;17.17;;;;;;;9.60;61.12;102132.09;4963368;28;20284;-80
2022/03/18 10:50:12;;;;;;;62.65;16.80;;;;;;;9.72;61.23;102131.50;4950354;28;20054;-80
2022/03/18 10:52:46;;;;;;;51.78;16.67;;;;;;;9.85;60.18;102145.03;4933540;28;20061;-80
2022/03/18 10:55:17;;;;;;;71.40;19.95;;;;;;;9.81;60.92;102139.94;4947351;28;20156;-79
2022/03/18 10:57:50;;;;;;;49.45;17.00;;;;;;;9.65;61.34;102153.09;4952043;28;20050;-80
2022/03/18 11:00:18;;;;;;;57.67;19.42;;;;;;;9.85;60.44;102139.72;4936328;28;20057;-80
2022/03/18 11:02:48;;;;;;;48.97;17.35;;;;;;;9.87;60.97;102137.88;4950540;28;20175;-80
2022/03/18 11:05:19;;;;;;;48.83;17.05;;;;;;;9.72;61.09;102134.16;4964289;28;20047;-80
2022/03/18 11:07:47;;;;;;;48.33;16.70;;;;;;;9.78;61.11;102159.53;4958187;28;20072;-80
2022/03/18 11:13:03;;;;;;;56.63;20.27;;;;;;;9.88;61.05;102149.34;4958756;28;20451;-80
2022/03/18 11:15:30;;;;;;;54.38;19.52;;;;;;;9.91;60.86;102149.19;4951726;28;20038;-81
2022/03/18 11:17:57;;;;;;;57.67;18.45;;;;;;;9.93;61.07;102161.44;4982987;28;20052;-80
2022/03/18 11:20:27;;;;;;;51.30;19.13;;;;;;;9.90;60.81;102168.69;5018133;28;20045;-80
2022/03/18 11:22:57;;;;;;;63.72;20.30;;;;;;;9.81;60.52;102150.56;5000396;28;20045;-81
2022/03/18 11:25:25;;;;;;;57.50;19.23;;;;;;;9.94;60.13;102149.88;4997199;28;20073;-81
2022/03/18 11:27:54;;;;;;;53.83;19.58;;;;;;;9.94;60.85;102155.19;4975856;28;20050;-81
2022/03/18 11:30:37;;;;;;;51.47;19.00;;;;;;;9.82;62.12;102141.66;4962910;28;20072;-82
2022/03/18 11:33:10;;;;;;;55.42;18.95;;;;;;;10.09;61.72;102136.78;4963386;28;20111;-80
2022/03/18 11:35:49;;;;;;;50.60;20.38;;;;;;;9.97;61.66;102133.81;5016370;28;20788;-81
2022/03/18 11:38:25;;;;;;;59.85;19.45;;;;;;;10.13;61.47;102141.88;4989299;28;20486;-81
2022/03/18 11:41:00;;;;;;;57.40;19.45;;;;;;;10.09;61.27;102150.91;4946269;28;20048;-80